Pagrindinis puslapis
METAR-TAF:

METAR-TAF

Oro uostai :

Tartu, Estija

platuma: 58-18N, ilguma: 026-44E, Aukštis: 59 m

Dabartinis oras

Ataskaita buvo paskelbta 27 minutes, ne 03:50 UTC
Vėjas 6 kt iš Pietvakarių
Temperatūra 16°C
Drėgmė 72%
Slėgis 1015 hPa
Matomumas 10 km arba daugiau

METAR: EETU 060350Z AUTO 23006KT 9999 NCD 16/11 Q1015

Laikas: 07:17 (04:17 UTC)

Prognozė

Ataskaita buvo paskelbta 12 valandos ir 17 minutes, ne 16:00 UTC
Prognozė galioja nuo 05 metu 17 UTC su 05 metu 23 UTC
Vėjas 10 kt iš Vakarų/Pietvakarių
Matomumas 10 km arba daugiau
Išsisklaidę debesys ne aukštis 4500 ft
Tikimybė 40% :
Laikinai
nuo 05 metu 17 UTC su 05 metu 19 UTC
Mažai debesys ne aukštis 3000 ft, Liūtiniai kamuoliniai debesys.

TAF: EETU 051600Z 0517/0523 25010KT 9999 SCT045 PROB40 TEMPO 0517/0519 FEW030CB

Orai ataskaitas ir orų prognozės (METAR, TAF).

turimą stotys yra geltonos ir raudonos taškus žemėlapyje.

Perkelti pele per norėdami pamatyti stoties vardą.

Tada spustelėkite, norėdami matyti oro stebėjimo ir prognozės.

Norėdami pakeisti žemėlapį: spustelėkite ant žalios mygtukų su juodo kryžiaus žemyn,; žalią mygtuką su brūkšneliu, jei norite nutolinti; arba žalių rodyklių gretimoms žemėlapius.


METAR-TAF: